createdAt,value
2017-09-07T00:00:52.572Z,83.80
2017-09-07T00:03:59.217Z,83.90
2017-09-07T00:07:04.212Z,84.10
2017-09-07T00:10:08.899Z,85.00
2017-09-07T00:13:14.343Z,84.40
2017-09-07T00:16:19.143Z,84.70
2017-09-07T00:19:24.411Z,84.90
2017-09-07T00:22:29.974Z,85.10
2017-09-07T00:25:34.948Z,85.20
2017-09-07T00:28:40.067Z,85.20
2017-09-07T00:31:45.671Z,85.40
2017-09-07T00:34:51.412Z,85.50
2017-09-07T00:37:56.876Z,85.90
2017-09-07T00:41:01.696Z,86.40
2017-09-07T00:44:06.880Z,87.10
2017-09-07T00:47:11.918Z,86.00
2017-09-07T00:50:17.448Z,86.50
2017-09-07T00:53:22.854Z,86.70
2017-09-07T00:56:28.409Z,87.00
2017-09-07T00:59:33.832Z,87.30
2017-09-07T01:02:38.959Z,87.40
2017-09-07T01:05:46.856Z,87.30
2017-09-07T01:08:53.957Z,87.00
2017-09-07T01:11:59.076Z,87.10
2017-09-07T01:15:05.443Z,87.00
2017-09-07T01:18:10.272Z,87.50
2017-09-07T01:21:15.476Z,86.90
2017-09-07T01:24:21.020Z,87.10
2017-09-07T01:27:26.654Z,87.20
2017-09-07T01:30:31.462Z,87.40
2017-09-07T01:33:36.916Z,87.60
2017-09-07T01:36:42.604Z,87.90
2017-09-07T01:39:47.767Z,88.70
2017-09-07T01:42:53.135Z,88.80
2017-09-07T01:45:58.798Z,89.20
2017-09-07T01:49:08.104Z,89.40
2017-09-07T01:52:13.200Z,89.60
2017-09-07T01:55:18.188Z,89.60
2017-09-07T01:58:23.796Z,89.40
2017-09-07T02:01:28.879Z,89.10
2017-09-07T02:04:34.058Z,89.20
2017-09-07T02:07:39.624Z,89.80
2017-09-07T02:10:45.411Z,89.70
2017-09-07T02:13:50.827Z,90.10
2017-09-07T02:16:56.083Z,90.10
2017-09-07T02:20:00.999Z,90.20
2017-09-07T02:23:05.795Z,90.20
2017-09-07T02:26:10.912Z,89.90
2017-09-07T02:29:16.560Z,90.20
2017-09-07T02:32:22.015Z,90.20
2017-09-07T02:35:27.313Z,90.20
2017-09-07T02:38:33.008Z,90.10
2017-09-07T02:41:38.176Z,89.90
2017-09-07T02:44:43.716Z,89.60
2017-09-07T02:47:48.748Z,90.20
2017-09-07T02:50:53.880Z,89.60
2017-09-07T02:53:59.193Z,89.90
2017-09-07T02:57:04.702Z,89.90
2017-09-07T03:00:09.798Z,89.80
2017-09-07T03:03:15.436Z,89.40
2017-09-07T03:06:20.416Z,89.10
2017-09-07T03:09:25.965Z,89.00
2017-09-07T03:12:30.848Z,89.40
2017-09-07T03:15:36.399Z,89.80
2017-09-07T03:18:41.155Z,90.10
2017-09-07T03:21:46.400Z,90.20
2017-09-07T03:24:51.359Z,90.30
2017-09-07T03:27:57.039Z,90.30
2017-09-07T03:31:01.836Z,90.20
2017-09-07T03:34:07.511Z,90.20
2017-09-07T03:37:12.563Z,90.30
2017-09-07T03:40:18.316Z,90.40
2017-09-07T03:43:23.819Z,90.30
2017-09-07T03:46:28.972Z,90.30
2017-09-07T03:49:34.605Z,90.20
2017-09-07T03:52:41.131Z,90.30
2017-09-07T03:55:45.852Z,90.30
2017-09-07T03:58:51.171Z,90.30
2017-09-07T04:01:56.618Z,90.20
2017-09-07T04:05:03.915Z,90.30
2017-09-07T04:08:09.343Z,90.40
2017-09-07T04:11:14.154Z,90.40
2017-09-07T04:14:19.528Z,90.50
2017-09-07T04:17:24.700Z,90.60
2017-09-07T04:20:30.319Z,90.60
2017-09-07T04:23:35.405Z,90.50
2017-09-07T04:26:40.763Z,90.60
2017-09-07T04:29:45.803Z,90.50
2017-09-07T04:32:50.702Z,90.50
2017-09-07T04:35:55.891Z,90.50
2017-09-07T04:39:01.527Z,90.50
2017-09-07T04:42:06.771Z,90.50
2017-09-07T04:45:11.978Z,90.60
2017-09-07T04:48:17.353Z,90.60
2017-09-07T04:51:22.364Z,90.60
2017-09-07T04:54:27.995Z,90.60
2017-09-07T04:57:33.517Z,90.40
2017-09-07T05:00:38.403Z,90.40
2017-09-07T05:03:43.436Z,90.40
2017-09-07T05:06:48.216Z,90.40
2017-09-07T05:09:53.812Z,90.20
2017-09-07T05:12:58.867Z,90.10
2017-09-07T05:16:03.751Z,90.10
2017-09-07T05:19:09.244Z,90.20
2017-09-07T05:22:14.852Z,90.40
2017-09-07T05:25:20.702Z,90.10
2017-09-07T05:28:26.060Z,90.00
2017-09-07T05:31:31.145Z,89.80
2017-09-07T05:34:36.434Z,89.50
2017-09-07T05:37:42.932Z,88.80
2017-09-07T05:40:48.772Z,87.90
2017-09-07T05:43:54.199Z,87.30
2017-09-07T05:46:59.635Z,87.30
2017-09-07T05:50:04.731Z,85.90
2017-09-07T05:53:09.515Z,85.50
2017-09-07T05:56:14.593Z,85.20
2017-09-07T05:59:19.506Z,85.40
2017-09-07T06:02:24.288Z,85.60
2017-09-07T06:05:29.307Z,85.40
2017-09-07T06:08:34.319Z,84.90
2017-09-07T06:11:39.385Z,84.90
2017-09-07T06:14:45.016Z,84.40
2017-09-07T06:17:50.430Z,84.00
2017-09-07T06:20:56.999Z,83.40
2017-09-07T06:24:01.941Z,82.90
2017-09-07T06:27:07.308Z,82.00
2017-09-07T06:30:12.555Z,81.50
2017-09-07T06:33:18.309Z,81.50
2017-09-07T06:36:23.753Z,80.70
2017-09-07T06:39:28.507Z,80.50
2017-09-07T06:42:33.843Z,80.40
2017-09-07T06:45:38.839Z,79.60
2017-09-07T06:48:46.304Z,79.80
2017-09-07T06:51:50.979Z,80.10
2017-09-07T06:54:56.143Z,79.90
2017-09-07T06:58:02.747Z,79.30
2017-09-07T07:01:08.303Z,80.10
2017-09-07T07:04:13.974Z,80.80
2017-09-07T07:07:19.739Z,80.80
2017-09-07T07:10:25.955Z,80.40
2017-09-07T07:13:31.704Z,80.90
2017-09-07T07:16:37.040Z,81.00
2017-09-07T07:19:43.291Z,81.00
2017-09-07T07:22:48.461Z,81.00
2017-09-07T07:25:59.425Z,81.90
2017-09-07T07:29:04.936Z,79.10
2017-09-07T07:32:10.116Z,79.20
2017-09-07T07:35:15.228Z,77.80
2017-09-07T07:38:20.359Z,77.10
2017-09-07T07:41:26.112Z,77.40
2017-09-07T07:44:31.471Z,77.10
2017-09-07T07:47:40.372Z,77.30
2017-09-07T07:50:46.093Z,76.90
2017-09-07T07:53:50.956Z,76.50
2017-09-07T07:56:55.880Z,74.50
2017-09-07T08:00:00.679Z,74.80
2017-09-07T08:03:06.052Z,74.20
2017-09-07T08:06:11.060Z,74.80
2017-09-07T08:09:16.218Z,74.50
2017-09-07T08:12:21.896Z,74.20
2017-09-07T08:15:27.108Z,72.40
2017-09-07T08:18:32.346Z,70.60
2017-09-07T08:21:37.238Z,69.70
2017-09-07T08:24:42.759Z,70.30
2017-09-07T08:27:48.491Z,70.70
2017-09-07T08:30:54.628Z,70.70
2017-09-07T08:33:59.892Z,70.40
2017-09-07T08:37:04.655Z,70.60
2017-09-07T08:40:09.635Z,69.30
2017-09-07T08:43:14.800Z,68.30
2017-09-07T08:46:19.947Z,67.40
2017-09-07T08:49:25.181Z,69.10
2017-09-07T08:52:30.927Z,69.50
2017-09-07T08:55:36.171Z,69.10
2017-09-07T08:58:41.720Z,69.20
2017-09-07T09:01:46.971Z,67.10
2017-09-07T09:04:52.811Z,68.40
2017-09-07T09:07:58.374Z,64.90
2017-09-07T09:11:03.884Z,66.30
2017-09-07T09:14:12.391Z,63.40
2017-09-07T09:17:17.820Z,63.50
2017-09-07T09:20:24.467Z,62.60
2017-09-07T09:23:30.606Z,63.30
2017-09-07T09:26:37.894Z,63.40
2017-09-07T09:29:44.755Z,61.60
2017-09-07T09:32:50.063Z,60.10
2017-09-07T09:35:54.977Z,60.60
2017-09-07T09:39:00.240Z,60.10
2017-09-07T09:42:05.885Z,58.60
2017-09-07T09:45:11.011Z,58.00
2017-09-07T09:48:22.867Z,57.90
2017-09-07T09:51:28.033Z,57.10
2017-09-07T09:54:33.201Z,57.40
2017-09-07T09:57:38.478Z,57.30
2017-09-07T10:00:43.493Z,56.80
2017-09-07T10:03:49.164Z,57.40
2017-09-07T10:06:54.508Z,58.40
2017-09-07T10:09:59.291Z,59.50
2017-09-07T10:13:04.583Z,57.90
2017-09-07T10:16:09.350Z,58.20
2017-09-07T10:19:15.261Z,57.90
2017-09-07T10:22:20.621Z,58.50
2017-09-07T10:25:26.145Z,57.30
2017-09-07T10:28:31.368Z,58.20
2017-09-07T10:31:37.291Z,56.80
2017-09-07T10:34:43.824Z,56.30
2017-09-07T10:37:48.705Z,56.90
2017-09-07T10:40:54.013Z,55.10
2017-09-07T10:44:01.157Z,57.30
2017-09-07T10:47:06.791Z,55.00
2017-09-07T10:50:11.800Z,55.40
2017-09-07T10:53:16.822Z,56.10
2017-09-07T10:56:22.479Z,55.60
2017-09-07T10:59:27.991Z,56.10
2017-09-07T11:02:33.430Z,55.00
2017-09-07T11:05:38.476Z,53.90
2017-09-07T11:08:44.004Z,52.80
2017-09-07T11:11:49.203Z,53.70
2017-09-07T11:14:53.940Z,52.60
2017-09-07T11:17:58.916Z,52.50
2017-09-07T11:21:04.353Z,52.90
2017-09-07T11:24:09.940Z,50.80
2017-09-07T11:27:15.064Z,47.90
2017-09-07T11:30:20.011Z,48.80
2017-09-07T11:33:25.024Z,50.60
2017-09-07T11:36:30.741Z,51.00
2017-09-07T11:39:35.592Z,51.70
2017-09-07T11:42:40.491Z,51.90
2017-09-07T11:45:47.040Z,50.60
2017-09-07T11:48:51.844Z,51.70
2017-09-07T11:51:57.270Z,52.80
2017-09-07T11:55:02.915Z,52.70
2017-09-07T11:58:08.335Z,54.40
2017-09-07T12:01:14.083Z,54.30
2017-09-07T12:04:18.924Z,54.70
2017-09-07T12:07:23.928Z,54.00
2017-09-07T12:10:29.585Z,53.50
2017-09-07T12:13:36.284Z,52.90
2017-09-07T12:16:41.844Z,53.90
2017-09-07T12:19:47.571Z,53.90
2017-09-07T12:22:52.739Z,54.20
2017-09-07T12:25:57.661Z,53.70
2017-09-07T12:29:02.771Z,55.00
2017-09-07T12:32:07.664Z,55.80
2017-09-07T12:35:12.455Z,55.60
2017-09-07T12:38:17.651Z,53.90
2017-09-07T12:41:22.547Z,52.70
2017-09-07T12:44:27.432Z,53.10
2017-09-07T12:47:32.247Z,51.80
2017-09-07T12:50:38.708Z,52.40
2017-09-07T12:53:44.408Z,51.60
2017-09-07T12:56:49.612Z,51.30
2017-09-07T12:59:55.448Z,51.60
2017-09-07T13:03:00.451Z,47.90
2017-09-07T13:06:05.991Z,48.70
2017-09-07T13:09:11.131Z,49.30
2017-09-07T13:12:16.454Z,49.10
2017-09-07T13:15:22.385Z,49.80
2017-09-07T13:18:27.425Z,48.50
2017-09-07T13:21:32.756Z,50.10
2017-09-07T13:24:38.063Z,49.20
2017-09-07T13:27:43.484Z,49.20
2017-09-07T13:30:48.512Z,48.30
2017-09-07T13:33:53.913Z,48.40
2017-09-07T13:37:00.205Z,48.80
2017-09-07T13:40:05.234Z,50.10
2017-09-07T13:43:09.937Z,49.10
2017-09-07T13:46:14.750Z,50.10
2017-09-07T13:49:20.432Z,50.70
2017-09-07T13:52:25.528Z,50.60
2017-09-07T13:55:30.536Z,50.40
2017-09-07T13:58:35.814Z,51.10
2017-09-07T14:01:40.961Z,50.70
2017-09-07T14:04:46.178Z,50.50
2017-09-07T14:07:51.181Z,51.00
2017-09-07T14:10:56.808Z,52.00
2017-09-07T14:14:02.552Z,51.50
2017-09-07T14:17:07.671Z,50.90
2017-09-07T14:20:13.430Z,50.40
2017-09-07T14:23:18.537Z,50.50
2017-09-07T14:26:24.171Z,48.90
2017-09-07T14:29:29.717Z,50.80
2017-09-07T14:32:35.016Z,51.60
2017-09-07T14:35:40.475Z,49.70
2017-09-07T14:38:45.378Z,49.70
2017-09-07T14:41:50.659Z,49.90
2017-09-07T14:44:56.201Z,51.40
2017-09-07T14:48:01.650Z,51.40
2017-09-07T14:51:06.784Z,52.50
2017-09-07T14:54:12.345Z,51.90
2017-09-07T14:57:17.477Z,51.60
2017-09-07T15:00:24.477Z,51.60
2017-09-07T15:03:29.639Z,50.80
2017-09-07T15:06:34.800Z,51.80
2017-09-07T15:09:40.047Z,52.20
2017-09-07T15:12:45.591Z,51.60
2017-09-07T15:15:50.639Z,52.90
2017-09-07T15:18:56.144Z,52.90
2017-09-07T15:22:01.921Z,53.50
2017-09-07T15:25:06.773Z,53.50
2017-09-07T15:28:12.319Z,54.20
2017-09-07T15:31:17.145Z,54.40
2017-09-07T15:34:22.196Z,54.30
2017-09-07T15:37:27.052Z,53.80
2017-09-07T15:40:32.796Z,54.00
2017-09-07T15:43:39.301Z,54.70
2017-09-07T15:46:44.775Z,54.30
2017-09-07T15:49:49.931Z,54.00
2017-09-07T15:52:54.796Z,54.90
2017-09-07T15:56:00.621Z,55.00
2017-09-07T15:59:05.456Z,54.70
2017-09-07T16:02:10.916Z,55.50
2017-09-07T16:05:16.440Z,55.80
2017-09-07T16:08:22.145Z,56.30
2017-09-07T16:11:27.331Z,56.30
2017-09-07T16:14:33.095Z,55.50
2017-09-07T16:17:38.096Z,56.70
2017-09-07T16:20:43.851Z,56.10
2017-09-07T16:23:49.172Z,56.00
2017-09-07T16:26:55.232Z,57.10
2017-09-07T16:30:00.396Z,56.60
2017-09-07T16:33:05.076Z,56.90
2017-09-07T16:36:10.105Z,57.10
2017-09-07T16:39:15.169Z,56.70
2017-09-07T16:42:20.543Z,57.00
2017-09-07T16:45:25.943Z,56.20
2017-09-07T16:48:31.415Z,56.70
2017-09-07T16:51:37.092Z,56.80
2017-09-07T16:54:41.920Z,56.50
2017-09-07T16:57:47.004Z,55.80
2017-09-07T17:00:52.200Z,56.60
2017-09-07T17:03:57.628Z,57.20
2017-09-07T17:07:57.995Z,57.70
2017-09-07T17:11:03.739Z,58.20
2017-09-07T17:14:09.025Z,58.00
2017-09-07T17:17:14.332Z,58.50
2017-09-07T17:20:20.503Z,58.60
2017-09-07T17:23:26.087Z,58.60
2017-09-07T17:26:31.005Z,59.00
2017-09-07T17:29:36.370Z,59.20
2017-09-07T17:32:41.910Z,59.40
2017-09-07T17:35:46.879Z,60.00
2017-09-07T17:38:52.415Z,60.60
2017-09-07T17:41:58.428Z,60.20
2017-09-07T17:45:03.455Z,60.60
2017-09-07T17:48:08.468Z,60.70
2017-09-07T17:51:13.501Z,60.60
2017-09-07T17:54:18.184Z,61.10
2017-09-07T17:57:23.064Z,61.50
2017-09-07T18:00:29.424Z,62.40
2017-09-07T18:03:34.912Z,63.60
2017-09-07T18:06:40.039Z,64.40
2017-09-07T18:09:45.121Z,64.90
2017-09-07T18:12:50.065Z,65.20
2017-09-07T18:15:55.892Z,65.00
2017-09-07T18:19:01.303Z,65.00
2017-09-07T18:22:06.860Z,65.40
2017-09-07T18:25:11.891Z,65.70
2017-09-07T18:28:16.881Z,65.80
2017-09-07T18:31:21.707Z,66.20
2017-09-07T18:34:27.356Z,67.20
2017-09-07T18:37:33.679Z,66.60
2017-09-07T18:40:39.116Z,67.10
2017-09-07T18:43:45.133Z,67.60
2017-09-07T18:46:50.264Z,68.00
2017-09-07T18:49:56.055Z,68.10
2017-09-07T18:53:01.445Z,68.30
2017-09-07T18:56:06.484Z,68.70
2017-09-07T18:59:11.559Z,68.50
2017-09-07T19:02:16.495Z,69.10
2017-09-07T19:05:22.207Z,68.70
2017-09-07T19:08:28.501Z,69.60
2017-09-07T19:11:33.441Z,69.60
2017-09-07T19:14:38.736Z,70.00
2017-09-07T19:17:43.604Z,70.30
2017-09-07T19:20:49.097Z,70.40
2017-09-07T19:23:54.857Z,70.10
2017-09-07T19:26:59.709Z,70.20
2017-09-07T19:30:05.496Z,69.90
2017-09-07T19:33:11.056Z,70.10
2017-09-07T19:36:16.292Z,70.10
2017-09-07T19:39:21.136Z,70.10
2017-09-07T19:42:26.035Z,70.30
2017-09-07T19:45:31.462Z,70.30
2017-09-07T19:48:37.776Z,70.70
2017-09-07T19:51:44.064Z,70.60
2017-09-07T19:54:49.404Z,70.80
2017-09-07T19:57:54.921Z,71.00
2017-09-07T20:01:00.119Z,71.30
2017-09-07T20:04:06.004Z,71.60
2017-09-07T20:07:12.426Z,71.80
2017-09-07T20:10:18.004Z,71.70
2017-09-07T20:13:23.334Z,72.10
2017-09-07T20:16:29.045Z,72.20
2017-09-07T20:19:34.100Z,72.20
2017-09-07T20:22:38.976Z,72.00
2017-09-07T20:25:44.488Z,72.20
2017-09-07T20:28:49.556Z,72.30
2017-09-07T20:31:55.591Z,72.60
2017-09-07T20:35:01.047Z,72.60
2017-09-07T20:38:06.212Z,73.00
2017-09-07T20:41:12.339Z,72.90
2017-09-07T20:44:17.531Z,72.90
2017-09-07T20:47:22.627Z,73.10
2017-09-07T20:50:27.565Z,73.10
2017-09-07T20:53:33.104Z,73.40
2017-09-07T20:56:38.471Z,73.50
2017-09-07T20:59:43.740Z,73.90
2017-09-07T21:02:48.710Z,74.50
2017-09-07T21:05:53.845Z,74.30
2017-09-07T21:08:58.756Z,74.30
2017-09-07T21:12:03.797Z,74.40
2017-09-07T21:15:09.264Z,74.80
2017-09-07T21:18:14.794Z,74.80
2017-09-07T21:21:19.927Z,74.70
2017-09-07T21:24:25.461Z,75.00
2017-09-07T21:27:30.684Z,74.40
2017-09-07T21:30:35.902Z,74.50
2017-09-07T21:33:41.572Z,74.80
2017-09-07T21:36:47.018Z,74.70
2017-09-07T21:39:52.766Z,75.10
2017-09-07T21:42:58.585Z,75.30
2017-09-07T21:46:04.363Z,75.50
2017-09-07T21:49:10.672Z,75.80
2017-09-07T21:52:15.912Z,75.40
2017-09-07T21:55:21.295Z,75.30
2017-09-07T21:58:26.931Z,75.00
2017-09-07T22:01:32.325Z,75.50
2017-09-07T22:04:37.773Z,75.30
2017-09-07T22:07:42.959Z,76.10
2017-09-07T22:10:47.703Z,76.40
2017-09-07T22:13:52.879Z,76.50
2017-09-07T22:16:58.204Z,76.80
2017-09-07T22:20:03.103Z,76.90
2017-09-07T22:23:08.446Z,76.90
2017-09-07T22:26:14.051Z,76.80
2017-09-07T22:29:19.112Z,77.10
2017-09-07T22:32:24.280Z,77.20
2017-09-07T22:35:29.036Z,77.30
2017-09-07T22:38:34.406Z,77.50
2017-09-07T22:41:40.218Z,77.70
2017-09-07T22:44:45.334Z,78.10
2017-09-07T22:47:51.323Z,78.50
2017-09-07T22:50:58.632Z,78.50
2017-09-07T22:54:03.792Z,78.40
2017-09-07T22:57:09.236Z,78.20
2017-09-07T23:00:14.752Z,78.10
2017-09-07T23:03:19.689Z,78.40
2017-09-07T23:06:24.916Z,78.80
2017-09-07T23:09:30.305Z,78.20
2017-09-07T23:12:35.409Z,78.30
2017-09-07T23:15:40.828Z,78.40
2017-09-07T23:18:46.868Z,78.60
2017-09-07T23:21:52.251Z,78.30
2017-09-07T23:24:57.427Z,78.50
2017-09-07T23:28:02.526Z,78.60
2017-09-07T23:31:08.856Z,78.90
2017-09-07T23:34:14.279Z,78.90
2017-09-07T23:37:19.532Z,79.70
2017-09-07T23:40:25.213Z,80.10
2017-09-07T23:43:30.368Z,80.60
2017-09-07T23:46:36.029Z,81.10
2017-09-07T23:49:41.451Z,81.60
2017-09-07T23:52:46.604Z,81.80
2017-09-07T23:55:51.483Z,82.10
2017-09-07T23:58:56.448Z,82.80
